Time;durP1;ratioP1;P1;durP2;ratioP2;P2;SDS_P1;SDS_P2;PMS_P1;PMS_P2;Temp;Humidity;BMP_temperature;BMP_pressure;BME280_temperature;BME280_humidity;BME280_pressure;Samples;Min_cycle;Max_cycle;Signal;HPM_P1;HPM_P2
2022/09/25 00:00:02;;;;;;;2.97;1.83;;;;;;;;;;4976455;28;20058;-66
2022/09/25 00:02:28;;;;;;;1.92;1.60;;;;;;;;;;4976206;28;20047;-66
2022/09/25 00:04:55;;;;;;;2.30;1.52;;;;;;;;;;4976112;28;20495;-66
2022/09/25 00:07:21;;;;;;;3.88;1.80;;;;;;;;;;4976450;28;20050;-66
2022/09/25 00:09:48;;;;;;;3.58;1.60;;;;;;;;;;4975830;28;20070;-66
2022/09/25 00:12:14;;;;;;;2.15;1.45;;;;;;;;;;4976021;28;20057;-66
2022/09/25 00:14:40;;;;;;;2.95;1.63;;;;;;;;;;4976146;28;20046;-66
2022/09/25 00:17:06;;;;;;;2.58;1.65;;;;;;;;;;4975926;28;20055;-66
2022/09/25 00:19:51;;;;;;;3.55;1.95;;;;;;;;;;4976058;28;20051;-66
2022/09/25 00:22:18;;;;;;;3.05;1.80;;;;;;;;;;4975771;28;20050;-66
2022/09/25 00:24:45;;;;;;;4.07;1.70;;;;;;;;;;4975507;28;20051;-66
2022/09/25 00:27:11;;;;;;;2.85;2.30;;;;;;;;;;4975774;28;20495;-66
2022/09/25 00:29:38;;;;;;;3.33;2.13;;;;;;;;;;4975896;28;20471;-66
2022/09/25 00:32:06;;;;;;;2.97;1.77;;;;;;;;;;4975967;28;20049;-66
2022/09/25 00:34:32;;;;;;;3.42;1.90;;;;;;;;;;4976159;28;20061;-66
2022/09/25 00:36:59;;;;;;;2.00;1.80;;;;;;;;;;4975663;28;20047;-66
2022/09/25 00:39:25;;;;;;;3.05;2.10;;;;;;;;;;4975814;28;20050;-66
2022/09/25 00:41:52;;;;;;;4.68;2.10;;;;;;;;;;4975383;28;20061;-66
2022/09/25 00:44:37;;;;;;;4.10;2.00;;;;;;;;;;4975578;28;20074;-66
2022/09/25 00:47:04;;;;;;;2.63;2.08;;;;;;;;;;4975634;28;20050;-66
2022/09/25 00:49:30;;;;;;;2.30;1.90;;;;;;;;;;4975507;28;20072;-66
2022/09/25 00:52:02;;;;;;;2.95;1.73;;;;;;;;;;4975554;28;20046;-66
2022/09/25 00:54:30;;;;;;;3.83;2.20;;;;;;;;;;4975339;28;20051;-66
2022/09/25 00:56:57;;;;;;;2.40;1.70;;;;;;;;;;4975103;28;20057;-66
2022/09/25 00:59:26;;;;;;;3.15;2.05;;;;;;;;;;4974724;28;20082;-66
2022/09/25 01:01:54;;;;;;;4.93;1.90;;;;;;;;;;4975067;28;20486;-66
2022/09/25 01:04:22;;;;;;;3.97;2.22;;;;;;;;;;4974929;28;20055;-66
2022/09/25 01:06:51;;;;;;;5.22;2.08;;;;;;;;;;4975032;28;20061;-66
2022/09/25 01:09:18;;;;;;;3.53;1.80;;;;;;;;;;4974702;28;20494;-66
2022/09/25 01:11:45;;;;;;;3.70;2.15;;;;;;;;;;4974853;28;20050;-66
2022/09/25 01:14:16;;;;;;;3.40;1.67;;;;;;;;;;4975092;28;20058;-66
2022/09/25 01:16:48;;;;;;;2.00;1.73;;;;;;;;;;4974952;28;20058;-66
2022/09/25 01:19:34;;;;;;;3.80;2.30;;;;;;;;;;4975001;28;20141;-66
2022/09/25 01:22:14;;;;;;;6.57;2.47;;;;;;;;;;4974947;28;20073;-66
2022/09/25 01:24:53;;;;;;;4.00;2.50;;;;;;;;;;4973378;28;20047;-66
2022/09/25 01:27:32;;;;;;;3.53;2.70;;;;;;;;;;4974662;28;20051;-66
2022/09/25 01:29:58;;;;;;;4.50;2.60;;;;;;;;;;4974554;28;20047;-66
2022/09/25 01:32:28;;;;;;;3.63;2.88;;;;;;;;;;4974439;28;20069;-66
2022/09/25 01:34:54;;;;;;;3.00;2.67;;;;;;;;;;4974683;28;20042;-66
2022/09/25 01:37:42;;;;;;;6.10;3.05;;;;;;;;;;4974776;28;20384;-66
2022/09/25 01:40:10;;;;;;;4.20;2.50;;;;;;;;;;4974343;28;20517;-66
2022/09/25 01:42:42;;;;;;;4.10;1.80;;;;;;;;;;4974267;28;20051;-66
2022/09/25 01:45:14;;;;;;;5.45;2.30;;;;;;;;;;4974189;28;20046;-66
2022/09/25 01:47:43;;;;;;;6.88;1.58;;;;;;;;;;4974614;28;20243;-66
2022/09/25 01:50:15;;;;;;;2.78;1.80;;;;;;;;;;4974251;28;20057;-66
2022/09/25 01:52:46;;;;;;;5.20;2.00;;;;;;;;;;4974665;28;20062;-66
2022/09/25 01:55:15;;;;;;;5.03;1.80;;;;;;;;;;4974295;28;20411;-66
2022/09/25 01:57:48;;;;;;;4.68;1.70;;;;;;;;;;4974245;28;20059;-66
2022/09/25 02:00:17;;;;;;;4.18;1.80;;;;;;;;;;4973882;28;20499;-66
2022/09/25 02:02:46;;;;;;;3.88;1.70;;;;;;;;;;4973878;28;20062;-66
2022/09/25 02:05:16;;;;;;;2.58;1.85;;;;;;;;;;4974275;28;20095;-66
2022/09/25 02:07:46;;;;;;;4.75;1.95;;;;;;;;;;4974150;28;20054;-66
2022/09/25 02:10:15;;;;;;;3.85;1.70;;;;;;;;;;4973297;28;20042;-66
2022/09/25 02:12:48;;;;;;;3.67;1.88;;;;;;;;;;4973617;28;20064;-66
2022/09/25 02:15:24;;;;;;;5.55;1.90;;;;;;;;;;4973687;28;20050;-66
2022/09/25 02:20:41;;;;;;;3.08;1.98;;;;;;;;;;4973755;28;20058;-66
2022/09/25 02:23:12;;;;;;;2.67;1.75;;;;;;;;;;4973667;28;20076;-66
2022/09/25 02:25:43;;;;;;;3.17;1.90;;;;;;;;;;4973950;28;20399;-66
2022/09/25 02:28:10;;;;;;;1.90;1.73;;;;;;;;;;4973409;28;20061;-66
2022/09/25 02:30:36;;;;;;;3.65;1.73;;;;;;;;;;4973687;28;20057;-66
2022/09/25 02:33:03;;;;;;;3.22;1.80;;;;;;;;;;4973385;28;20046;-66
2022/09/25 02:35:30;;;;;;;3.55;2.03;;;;;;;;;;4973360;28;20781;-66
2022/09/25 02:37:57;;;;;;;2.63;1.63;;;;;;;;;;4973401;28;20051;-66
2022/09/25 02:40:32;;;;;;;4.40;1.63;;;;;;;;;;4973557;28;20077;-66
2022/09/25 02:43:06;;;;;;;2.75;1.85;;;;;;;;;;4973563;28;20047;-66
2022/09/25 02:45:38;;;;;;;1.77;1.65;;;;;;;;;;4973495;28;20050;-66
2022/09/25 02:48:17;;;;;;;2.45;1.67;;;;;;;;;;4973455;28;20050;-66
2022/09/25 02:50:53;;;;;;;3.63;1.85;;;;;;;;;;4973082;28;20057;-66
2022/09/25 02:53:28;;;;;;;4.82;1.80;;;;;;;;;;4973441;28;20050;-66
2022/09/25 02:55:58;;;;;;;3.88;1.85;;;;;;;;;;4973075;28;20066;-66
2022/09/25 02:58:36;;;;;;;3.40;1.98;;;;;;;;;;4973072;28;20059;-66
2022/09/25 03:01:04;;;;;;;2.40;1.95;;;;;;;;;;4972917;28;20593;-66
2022/09/25 03:03:32;;;;;;;5.05;2.35;;;;;;;;;;4973290;28;20050;-66
2022/09/25 03:05:59;;;;;;;4.70;1.77;;;;;;;;;;4972873;28;20050;-66
2022/09/25 03:08:40;;;;;;;3.50;1.65;;;;;;;;;;4972698;28;20491;-66
2022/09/25 03:11:08;;;;;;;2.92;1.95;;;;;;;;;;4972909;28;20051;-66
2022/09/25 03:13:34;;;;;;;;;;;;;;;;;;4973624;28;20414;-66
2022/09/25 03:16:00;;;;;;;4.82;2.03;;;;;;;;;;4973114;28;19926;-66
2022/09/25 03:18:27;;;;;;;5.32;2.22;;;;;;;;;;4973070;28;20054;-66
2022/09/25 03:20:54;;;;;;;3.78;1.63;;;;;;;;;;4972734;28;20055;-66
2022/09/25 03:23:20;;;;;;;3.13;2.08;;;;;;;;;;4978939;28;20058;-66
2022/09/25 03:25:46;;;;;;;4.43;2.38;;;;;;;;;;4979372;28;20055;-66
2022/09/25 03:28:15;;;;;;;3.85;2.20;;;;;;;;;;4979178;28;20094;-65
2022/09/25 03:30:42;;;;;;;6.35;2.13;;;;;;;;;;4978761;28;20500;-66
2022/09/25 03:33:09;;;;;;;3.22;2.00;;;;;;;;;;4978338;28;20047;-66
2022/09/25 03:35:36;;;;;;;5.47;2.35;;;;;;;;;;4979114;28;20066;-66
2022/09/25 03:38:03;;;;;;;6.03;2.20;;;;;;;;;;4979375;28;20054;-66
2022/09/25 03:40:29;;;;;;;2.97;2.20;;;;;;;;;;4979173;28;20051;-66
2022/09/25 03:42:58;;;;;;;5.10;2.08;;;;;;;;;;4979219;28;20117;-66
2022/09/25 03:45:24;;;;;;;4.18;1.70;;;;;;;;;;4979028;28;20406;-66
2022/09/25 03:47:50;;;;;;;2.60;1.65;;;;;;;;;;4979167;28;20050;-66
2022/09/25 03:50:17;;;;;;;3.63;1.75;;;;;;;;;;4979039;28;20542;-66
2022/09/25 03:52:43;;;;;;;5.25;2.17;;;;;;;;;;4979252;28;20050;-66
2022/09/25 03:55:10;;;;;;;7.03;2.95;;;;;;;;;;4979212;28;20416;-65
2022/09/25 03:57:38;;;;;;;4.80;2.45;;;;;;;;;;4979346;28;20146;-66
2022/09/25 04:00:05;;;;;;;5.10;2.75;;;;;;;;;;4978788;28;20053;-66
2022/09/25 04:02:31;;;;;;;2.65;1.98;;;;;;;;;;4979221;28;20053;-66
2022/09/25 04:04:58;;;;;;;6.72;2.50;;;;;;;;;;4978695;28;20521;-66
2022/09/25 04:07:24;;;;;;;2.33;2.13;;;;;;;;;;4979068;28;20050;-65
2022/09/25 04:09:51;;;;;;;3.70;2.30;;;;;;;;;;4978787;28;20051;-66
2022/09/25 04:12:17;;;;;;;3.60;2.40;;;;;;;;;;4973925;28;20057;-66
2022/09/25 04:14:45;;;;;;;5.20;3.20;;;;;;;;;;4978724;28;20058;-66
2022/09/25 04:17:12;;;;;;;5.82;3.00;;;;;;;;;;4979035;28;20046;-66
2022/09/25 04:19:38;;;;;;;4.03;2.88;;;;;;;;;;4979045;28;20051;-66
2022/09/25 04:22:04;;;;;;;4.60;2.70;;;;;;;;;;4978924;28;20050;-66
2022/09/25 04:24:49;;;;;;;3.42;2.45;;;;;;;;;;4978965;28;20043;-66
2022/09/25 04:27:22;;;;;;;3.88;2.40;;;;;;;;;;4978651;28;20051;-66
2022/09/25 04:29:48;;;;;;;4.90;2.42;;;;;;;;;;4978648;28;20518;-66
2022/09/25 04:35:00;;;;;;;4.28;2.70;;;;;;;;;;4974683;28;20605;-66
2022/09/25 04:37:27;;;;;;;3.60;2.80;;;;;;;;;;4975817;28;20050;-65
2022/09/25 04:39:56;;;;;;;2.90;2.50;;;;;;;;;;4975717;28;20054;-66
2022/09/25 04:42:23;;;;;;;5.72;2.72;;;;;;;;;;4975680;28;20078;-66
2022/09/25 04:44:54;;;;;;;6.05;3.00;;;;;;;;;;4975641;28;20109;-65
2022/09/25 04:47:21;;;;;;;6.32;2.80;;;;;;;;;;4975705;28;20054;-65
2022/09/25 04:49:48;;;;;;;2.22;2.03;;;;;;;;;;4975631;28;20054;-66
2022/09/25 04:52:15;;;;;;;3.38;2.28;;;;;;;;;;4975262;28;20058;-65
2022/09/25 04:54:41;;;;;;;4.03;2.85;;;;;;;;;;4975249;28;20051;-66
2022/09/25 04:57:09;;;;;;;5.05;3.00;;;;;;;;;;4975275;28;20410;-66
2022/09/25 04:59:36;;;;;;;4.47;2.60;;;;;;;;;;4975196;28;20055;-66
2022/09/25 05:02:03;;;;;;;6.00;2.78;;;;;;;;;;4975355;28;20085;-65
2022/09/25 05:04:29;;;;;;;5.35;3.05;;;;;;;;;;4975070;28;20376;-66
2022/09/25 05:06:56;;;;;;;5.32;2.70;;;;;;;;;;4974164;28;20490;-66
2022/09/25 05:09:22;;;;;;;4.93;3.00;;;;;;;;;;4974941;28;20059;-66
2022/09/25 05:11:49;;;;;;;3.60;3.15;;;;;;;;;;4974788;28;20499;-66
2022/09/25 05:14:15;;;;;;;3.17;2.70;;;;;;;;;;4975092;28;20088;-65
2022/09/25 05:16:42;;;;;;;4.28;3.10;;;;;;;;;;4975167;28;20049;-66
2022/09/25 05:19:08;;;;;;;2.63;2.30;;;;;;;;;;4975115;28;20054;-65
2022/09/25 05:21:34;;;;;;;4.68;2.78;;;;;;;;;;4975005;28;20063;-66
2022/09/25 05:24:01;;;;;;;3.80;2.67;;;;;;;;;;4974921;28;20058;-66
2022/09/25 05:26:28;;;;;;;4.53;3.35;;;;;;;;;;4975028;28;20134;-66
2022/09/25 05:28:55;;;;;;;5.72;3.55;;;;;;;;;;4974609;28;20410;-65
2022/09/25 05:31:21;;;;;;;5.68;3.53;;;;;;;;;;4974954;28;20057;-66
2022/09/25 05:33:48;;;;;;;5.53;3.45;;;;;;;;;;4974495;28;20510;-66
2022/09/25 05:36:17;;;;;;;5.70;3.63;;;;;;;;;;4974746;28;20054;-66
2022/09/25 05:38:43;;;;;;;4.45;3.15;;;;;;;;;;4974574;28;20055;-66
2022/09/25 05:41:10;;;;;;;3.70;3.30;;;;;;;;;;4974360;28;20057;-66
2022/09/25 05:43:39;;;;;;;3.45;2.83;;;;;;;;;;4974292;28;20047;-65
2022/09/25 05:46:05;;;;;;;4.70;3.30;;;;;;;;;;4974166;28;20046;-66
2022/09/25 05:48:32;;;;;;;3.90;3.00;;;;;;;;;;4974515;28;20039;-66
2022/09/25 05:50:58;;;;;;;4.45;3.65;;;;;;;;;;4974497;28;20061;-66
2022/09/25 05:53:25;;;;;;;6.22;3.53;;;;;;;;;;4973251;28;20043;-66
2022/09/25 05:55:57;;;;;;;4.65;3.47;;;;;;;;;;4974347;28;20059;-66
2022/09/25 05:58:24;;;;;;;4.07;3.38;;;;;;;;;;4974157;28;20066;-66
2022/09/25 06:00:50;;;;;;;5.30;3.15;;;;;;;;;;4974280;28;20043;-66
2022/09/25 06:03:17;;;;;;;4.57;3.00;;;;;;;;;;4974236;28;20039;-66
2022/09/25 06:05:44;;;;;;;5.95;3.30;;;;;;;;;;4974128;28;20057;-66
2022/09/25 06:08:12;;;;;;;5.57;3.20;;;;;;;;;;4973838;28;20043;-66
2022/09/25 06:10:38;;;;;;;4.82;3.50;;;;;;;;;;4974101;28;20057;-66
2022/09/25 06:13:05;;;;;;;5.32;3.85;;;;;;;;;;4973767;28;20051;-66
2022/09/25 06:15:36;;;;;;;8.20;4.20;;;;;;;;;;4973801;28;20051;-67
2022/09/25 06:18:03;;;;;;;4.57;3.75;;;;;;;;;;4973695;28;20510;-66
2022/09/25 06:20:29;;;;;;;4.28;3.78;;;;;;;;;;4973695;28;20522;-66
2022/09/25 06:22:57;;;;;;;7.93;4.63;;;;;;;;;;4973772;28;20050;-66
2022/09/25 06:25:25;;;;;;;9.60;4.40;;;;;;;;;;4973596;28;20058;-66
2022/09/25 06:27:52;;;;;;;7.18;3.78;;;;;;;;;;4973895;28;20438;-66
2022/09/25 06:30:20;;;;;;;5.40;3.28;;;;;;;;;;4973799;28;20043;-66
2022/09/25 06:32:47;;;;;;;7.25;3.70;;;;;;;;;;4973814;28;20406;-66
2022/09/25 06:35:14;;;;;;;6.17;3.90;;;;;;;;;;4973346;28;20062;-66
2022/09/25 06:37:40;;;;;;;5.60;3.53;;;;;;;;;;4973532;28;20284;-66
2022/09/25 06:40:07;;;;;;;4.05;3.55;;;;;;;;;;4973306;28;20065;-66
2022/09/25 06:42:34;;;;;;;8.23;4.82;;;;;;;;;;4973236;28;20059;-66
2022/09/25 06:45:00;;;;;;;4.70;3.85;;;;;;;;;;4973353;28;20051;-66
2022/09/25 06:47:27;;;;;;;7.32;4.03;;;;;;;;;;4973224;28;20051;-66
2022/09/25 06:49:53;;;;;;;6.25;3.90;;;;;;;;;;4973390;28;20406;-66
2022/09/25 06:52:19;;;;;;;3.88;3.55;;;;;;;;;;4973469;28;20053;-66
2022/09/25 06:54:46;;;;;;;9.15;3.42;;;;;;;;;;4973114;28;20415;-66
2022/09/25 06:57:12;;;;;;;4.30;3.90;;;;;;;;;;4972591;28;20054;-66
2022/09/25 06:59:39;;;;;;;4.95;3.58;;;;;;;;;;4973232;28;20051;-66
2022/09/25 07:04:50;;;;;;;4.93;3.67;;;;;;;;;;4973047;28;20062;-66
2022/09/25 07:07:19;;;;;;;5.13;3.60;;;;;;;;;;4973058;28;20058;-66
2022/09/25 07:09:49;;;;;;;6.72;4.05;;;;;;;;;;4972695;28;20082;-66
2022/09/25 07:12:17;;;;;;;3.90;3.50;;;;;;;;;;4972831;28;20054;-66
2022/09/25 07:14:45;;;;;;;;;;;;;;;;;;4973301;28;20046;-66
2022/09/25 07:17:12;;;;;;;5.63;3.17;;;;;;;;;;4973051;28;19922;-66
2022/09/25 07:19:39;;;;;;;3.70;3.33;;;;;;;;;;4972870;28;20065;-66
2022/09/25 07:22:05;;;;;;;4.72;3.60;;;;;;;;;;4973033;28;20050;-66
2022/09/25 07:24:32;;;;;;;4.22;3.80;;;;;;;;;;4973068;28;20046;-66
2022/09/25 07:26:58;;;;;;;4.32;3.92;;;;;;;;;;4972158;28;20039;-66
2022/09/25 07:29:25;;;;;;;4.15;3.70;;;;;;;;;;4972587;28;20050;-65
2022/09/25 07:31:51;;;;;;;5.95;4.00;;;;;;;;;;4972398;28;20055;-67
2022/09/25 07:34:17;;;;;;;6.53;4.45;;;;;;;;;;4972119;28;20050;-67
2022/09/25 07:36:44;;;;;;;5.68;3.92;;;;;;;;;;4971568;28;20054;-67
2022/09/25 07:39:10;;;;;;;5.88;4.68;;;;;;;;;;4972200;28;20491;-66
2022/09/25 07:41:43;;;;;;;5.88;3.83;;;;;;;;;;4973241;28;20054;-66
2022/09/25 07:44:09;;;;;;;5.75;4.07;;;;;;;;;;4973530;28;20054;-68
2022/09/25 07:46:54;;;;;;;5.40;4.00;;;;;;;;;;4974411;28;20047;-66
2022/09/25 07:49:21;;;;;;;5.47;3.92;;;;;;;;;;4971202;28;20038;-66
2022/09/25 07:51:47;;;;;;;4.97;3.60;;;;;;;;;;4973997;28;20058;-68
2022/09/25 07:54:13;;;;;;;6.13;3.78;;;;;;;;;;4973440;28;20054;-66
2022/09/25 07:56:40;;;;;;;7.18;3.70;;;;;;;;;;4973107;28;20042;-65
2022/09/25 07:59:06;;;;;;;7.05;3.22;;;;;;;;;;4973361;28;20047;-66
2022/09/25 08:01:32;;;;;;;6.40;3.10;;;;;;;;;;4973280;28;20047;-66
2022/09/25 08:04:04;;;;;;;4.15;2.95;;;;;;;;;;4973360;28;20057;-67
2022/09/25 08:06:33;;;;;;;4.78;3.33;;;;;;;;;;4974104;28;20126;-67
2022/09/25 08:08:59;;;;;;;5.63;2.70;;;;;;;;;;4972060;28;20054;-67
2022/09/25 08:11:27;;;;;;;4.82;2.33;;;;;;;;;;4977183;28;20054;-67
2022/09/25 08:13:53;;;;;;;4.03;2.40;;;;;;;;;;4977471;28;20053;-67
2022/09/25 08:16:22;;;;;;;6.13;3.05;;;;;;;;;;4977231;28;20047;-67
2022/09/25 08:18:49;;;;;;;4.05;2.05;;;;;;;;;;4977426;28;20070;-66
2022/09/25 08:21:17;;;;;;;5.47;2.17;;;;;;;;;;4977564;28;20042;-66
2022/09/25 08:23:44;;;;;;;5.13;2.22;;;;;;;;;;4977520;28;20046;-67
2022/09/25 08:26:13;;;;;;;3.17;2.08;;;;;;;;;;4977690;28;20050;-67
2022/09/25 08:28:40;;;;;;;4.20;2.25;;;;;;;;;;4976965;28;20047;-68
2022/09/25 08:31:07;;;;;;;3.45;2.35;;;;;;;;;;4963572;28;20047;-68
2022/09/25 08:33:34;;;;;;;3.92;1.90;;;;;;;;;;4974392;28;20518;-67
2022/09/25 08:36:02;;;;;;;4.95;1.70;;;;;;;;;;4976819;28;20425;-67
2022/09/25 08:38:31;;;;;;;4.30;1.63;;;;;;;;;;4977021;28;20050;-67
2022/09/25 08:41:02;;;;;;;2.92;1.83;;;;;;;;;;4976782;28;20069;-68
2022/09/25 08:43:30;;;;;;;4.47;1.83;;;;;;;;;;4975929;28;20102;-68
2022/09/25 08:49:02;;;;;;;2.90;1.63;;;;;;;;;;4976867;28;20065;-67
2022/09/25 08:51:29;;;;;;;3.03;1.40;;;;;;;;;;4977138;28;20407;-67
2022/09/25 08:53:55;;;;;;;;;;;;;;;;;;4977341;28;20096;-67
2022/09/25 08:56:23;;;;;;;3.22;1.40;;;;;;;;;;4977241;28;19922;-66
2022/09/25 08:58:51;;;;;;;3.65;1.58;;;;;;;;;;4976943;28;20061;-67
2022/09/25 09:01:27;;;;;;;1.60;1.10;;;;;;;;;;4977057;28;20051;-66
2022/09/25 09:04:05;;;;;;;1.60;1.10;;;;;;;;;;4976823;28;20043;-67
2022/09/25 09:06:32;;;;;;;2.78;1.20;;;;;;;;;;4976694;28;20501;-66
2022/09/25 09:09:03;;;;;;;2.20;1.15;;;;;;;;;;4976619;28;20144;-66
2022/09/25 09:11:34;;;;;;;2.70;1.10;;;;;;;;;;4976603;28;20049;-65
2022/09/25 09:14:05;;;;;;;2.38;1.30;;;;;;;;;;4976720;28;20101;-66
2022/09/25 09:16:40;;;;;;;1.95;1.15;;;;;;;;;;4976583;28;20054;-66
2022/09/25 09:19:08;;;;;;;2.67;1.00;;;;;;;;;;4976438;28;20411;-66
2022/09/25 09:21:36;;;;;;;2.72;1.10;;;;;;;;;;4976324;28;20050;-66
2022/09/25 09:24:08;;;;;;;5.97;1.45;;;;;;;;;;4976158;28;20051;-65
2022/09/25 09:26:43;;;;;;;2.97;1.20;;;;;;;;;;4976364;28;20057;-66
2022/09/25 09:29:12;;;;;;;3.10;1.23;;;;;;;;;;4976319;28;20051;-65
2022/09/25 09:31:58;;;;;;;2.65;1.13;;;;;;;;;;4976270;28;20043;-67
2022/09/25 09:34:24;;;;;;;2.58;1.20;;;;;;;;;;4967340;28;20407;-66
2022/09/25 09:37:24;;;;;;;3.25;0.90;;;;;;;;;;4976096;28;20050;-67
2022/09/25 09:40:06;;;;;;;2.45;0.90;;;;;;;;;;4975690;28;20051;-65
2022/09/25 09:42:38;;;;;;;2.33;1.00;;;;;;;;;;4976338;28;20051;-65
2022/09/25 09:45:08;;;;;;;2.25;0.70;;;;;;;;;;4974742;28;20050;-65
2022/09/25 09:47:53;;;;;;;3.72;0.80;;;;;;;;;;4974358;28;20047;-65
2022/09/25 09:50:19;;;;;;;2.75;1.02;;;;;;;;;;4975212;28;20047;-65
2022/09/25 09:52:48;;;;;;;4.10;1.00;;;;;;;;;;4975326;28;20047;-65
2022/09/25 09:55:33;;;;;;;1.38;0.50;;;;;;;;;;4975384;28;20082;-65
2022/09/25 09:58:03;;;;;;;2.45;0.80;;;;;;;;;;4975017;28;20043;-65
2022/09/25 10:00:31;;;;;;;2.33;1.45;;;;;;;;;;4975181;28;20462;-65
2022/09/25 10:03:16;;;;;;;3.35;1.38;;;;;;;;;;4975485;28;20051;-65
2022/09/25 10:05:46;;;;;;;4.07;1.80;;;;;;;;;;4975863;28;20045;-65
2022/09/25 10:08:13;;;;;;;2.58;0.77;;;;;;;;;;4975658;28;20038;-65
2022/09/25 10:10:39;;;;;;;;;;;;;;;;;;4975956;28;20043;-65
2022/09/25 10:13:32;;;;;;;3.20;1.48;;;;;;;;;;4975666;28;19963;-65
2022/09/25 10:16:00;;;;;;;0.98;0.57;;;;;;;;;;4973619;28;20051;-66
2022/09/25 10:18:30;;;;;;;1.80;0.70;;;;;;;;;;4975660;28;20070;-66
2022/09/25 10:21:03;;;;;;;2.55;0.80;;;;;;;;;;4975447;28;20054;-66
2022/09/25 10:23:36;;;;;;;2.10;0.98;;;;;;;;;;4975529;28;20071;-66
2022/09/25 10:26:03;;;;;;;3.00;0.70;;;;;;;;;;4974992;28;20057;-66
2022/09/25 10:28:31;;;;;;;0.63;0.60;;;;;;;;;;4975021;28;20047;-66
2022/09/25 10:30:58;;;;;;;1.20;0.65;;;;;;;;;;4975017;28;20043;-66
2022/09/25 10:33:26;;;;;;;1.50;0.60;;;;;;;;;;4974884;28;20050;-66
2022/09/25 10:35:53;;;;;;;2.47;0.80;;;;;;;;;;4975067;28;20403;-66
2022/09/25 10:38:23;;;;;;;1.33;0.77;;;;;;;;;;4975095;28;20054;-66
2022/09/25 10:41:09;;;;;;;1.33;0.73;;;;;;;;;;4975242;28;20047;-66
2022/09/25 10:43:48;;;;;;;1.23;0.55;;;;;;;;;;4975007;28;20112;-66
2022/09/25 10:46:15;;;;;;;2.38;0.57;;;;;;;;;;4974914;28;20053;-66
2022/09/25 10:51:26;;;;;;;2.45;0.60;;;;;;;;;;4974866;28;20043;-66
2022/09/25 10:53:52;;;;;;;;;;;;;;;;;;4975256;28;20525;-66
2022/09/25 10:56:19;;;;;;;;;;;;;;;;;;4975473;28;19954;-66
2022/09/25 10:58:54;;;;;;;1.17;0.30;;;;;;;;;;4975037;28;19955;-66
2022/09/25 11:01:28;;;;;;;1.15;0.40;;;;;;;;;;4974902;28;20078;-65
2022/09/25 11:03:55;;;;;;;1.65;0.55;;;;;;;;;;4975048;28;20043;-65
2022/09/25 11:06:23;;;;;;;0.95;0.40;;;;;;;;;;4974520;28;20043;-65
2022/09/25 11:09:06;;;;;;;1.95;0.50;;;;;;;;;;4973353;28;20061;-66
2022/09/25 11:11:33;;;;;;;1.67;0.70;;;;;;;;;;4974492;28;20552;-65
2022/09/25 11:14:02;;;;;;;2.58;0.95;;;;;;;;;;4974815;28;20047;-65
2022/09/25 11:16:45;;;;;;;2.80;0.57;;;;;;;;;;4974785;28;20047;-65
2022/09/25 11:19:32;;;;;;;0.75;0.40;;;;;;;;;;4974552;28;20055;-65
2022/09/25 11:22:09;;;;;;;1.23;0.60;;;;;;;;;;4974197;28;20053;-65
2022/09/25 11:24:41;;;;;;;3.63;0.60;;;;;;;;;;4974834;28;20061;-65
2022/09/25 11:27:30;;;;;;;1.33;0.60;;;;;;;;;;4974618;28;20050;-65
2022/09/25 11:29:57;;;;;;;1.05;0.30;;;;;;;;;;4974492;28;20070;-66
2022/09/25 11:32:29;;;;;;;1.42;0.50;;;;;;;;;;4974706;28;20039;-66
2022/09/25 11:34:56;;;;;;;1.88;0.43;;;;;;;;;;4974654;28;20043;-65
2022/09/25 11:37:22;;;;;;;;;;;;;;;;;;4974699;28;20487;-66
2022/09/25 11:42:50;;;;;;;1.10;0.60;;;;;;;;;;4974967;28;19922;-66
2022/09/25 11:45:29;;;;;;;1.73;0.40;;;;;;;;;;4978187;28;20051;-65
2022/09/25 11:48:11;;;;;;;2.78;0.32;;;;;;;;;;4978447;28;20402;-65
2022/09/25 11:50:48;;;;;;;1.10;0.82;;;;;;;;;;4978426;28;20047;-65
2022/09/25 11:53:24;;;;;;;0.93;0.43;;;;;;;;;;4978433;28;20047;-66
2022/09/25 11:55:53;;;;;;;1.20;0.35;;;;;;;;;;4978149;28;20051;-65
2022/09/25 11:58:38;;;;;;;1.13;0.30;;;;;;;;;;4978119;28;20047;-65
2022/09/25 12:01:25;;;;;;;1.85;0.30;;;;;;;;;;4977861;28;20498;-65
2022/09/25 12:04:11;;;;;;;0.32;0.20;;;;;;;;;;4957832;28;20051;-66
2022/09/25 12:06:41;;;;;;;0.60;0.30;;;;;;;;;;4977803;28;20134;-65
2022/09/25 12:09:41;;;;;;;0.95;0.20;;;;;;;;;;4977820;28;20061;-66
2022/09/25 12:12:14;;;;;;;0.47;0.15;;;;;;;;;;4954556;28;20102;-65
2022/09/25 12:14:50;;;;;;;0.55;0.17;;;;;;;;;;4977883;28;20057;-65
2022/09/25 12:17:17;;;;;;;1.33;0.15;;;;;;;;;;4977772;28;20054;-65
2022/09/25 12:20:03;;;;;;;1.88;0.75;;;;;;;;;;4977844;28;20051;-65
2022/09/25 12:22:47;;;;;;;3.33;1.63;;;;;;;;;;4977883;28;20047;-66
2022/09/25 12:25:15;;;;;;;0.80;0.50;;;;;;;;;;4977684;28;20053;-65
2022/09/25 12:28:02;;;;;;;1.55;0.50;;;;;;;;;;4977598;28;20066;-65
2022/09/25 12:30:33;;;;;;;0.50;0.40;;;;;;;;;;4977349;28;20049;-65
2022/09/25 12:33:31;;;;;;;1.38;0.50;;;;;;;;;;4977645;28;20047;-65
2022/09/25 12:36:02;;;;;;;1.65;1.30;;;;;;;;;;4969397;28;20414;-65
2022/09/25 12:38:43;;;;;;;0.73;0.35;;;;;;;;;;4977661;28;20050;-65
2022/09/25 12:41:16;;;;;;;1.75;0.38;;;;;;;;;;4977503;28;20130;-64
2022/09/25 12:43:50;;;;;;;1.80;0.50;;;;;;;;;;4977148;28;20487;-66
2022/09/25 12:46:20;;;;;;;2.00;0.40;;;;;;;;;;4977373;28;20049;-65
2022/09/25 12:48:50;;;;;;;1.23;0.35;;;;;;;;;;4977149;28;20050;-65
2022/09/25 12:51:22;;;;;;;0.63;0.43;;;;;;;;;;4977344;28;20050;-65
2022/09/25 12:53:55;;;;;;;0.38;0.30;;;;;;;;;;4977041;28;20047;-65
2022/09/25 12:56:32;;;;;;;0.50;0.30;;;;;;;;;;4976535;28;20047;-65
2022/09/25 12:59:02;;;;;;;0.93;0.50;;;;;;;;;;4976939;28;20406;-66
2022/09/25 13:01:39;;;;;;;1.83;0.80;;;;;;;;;;4976777;28;20049;-66
2022/09/25 13:04:24;;;;;;;2.35;0.77;;;;;;;;;;4977206;28;20051;-65
2022/09/25 13:06:59;;;;;;;1.08;0.50;;;;;;;;;;4977017;28;20050;-65
2022/09/25 13:09:45;;;;;;;0.80;0.50;;;;;;;;;;4976706;28;20058;-65
2022/09/25 13:12:15;;;;;;;3.00;1.13;;;;;;;;;;4976888;28;20082;-66
2022/09/25 13:14:45;;;;;;;0.90;0.52;;;;;;;;;;4976490;28;20051;-65
2022/09/25 13:17:12;;;;;;;2.75;1.92;;;;;;;;;;4976908;28;20047;-66
2022/09/25 13:19:38;;;;;;;;;;;;;;;;;;4977271;28;20053;-66
2022/09/25 13:22:09;;;;;;;6.65;2.70;;;;;;;;;;4976487;28;19922;-66
2022/09/25 13:24:38;;;;;;;2.28;1.20;;;;;;;;;;4976409;28;20058;-65
2022/09/25 13:27:05;;;;;;;11.18;5.47;;;;;;;;;;4975093;28;20043;-65
2022/09/25 13:29:40;;;;;;;3.95;2.00;;;;;;;;;;4976549;28;20050;-66
2022/09/25 13:32:12;;;;;;;2.15;1.40;;;;;;;;;;4976645;28;20047;-66
2022/09/25 13:34:39;;;;;;;1.13;0.60;;;;;;;;;;4976403;28;20065;-66
2022/09/25 13:37:06;;;;;;;;;;;;;;;;;;4976808;28;20074;-65
2022/09/25 13:42:24;;;;;;;1.05;0.88;;;;;;;;;;4976400;28;20077;-65
2022/09/25 13:44:51;;;;;;;1.37;0.90;;;;;;;;;;4975598;28;20054;-65
2022/09/25 13:47:22;;;;;;;4.47;1.20;;;;;;;;;;4976173;28;20410;-65
2022/09/25 13:49:52;;;;;;;1.73;0.80;;;;;;;;;;4975567;28;20054;-66
2022/09/25 13:53:15;;;;;;;3.05;1.35;;;;;;;;;;4974564;28;20065;-66
2022/09/25 13:56:01;;;;;;;2.38;1.30;;;;;;;;;;4957746;28;20418;-66
2022/09/25 13:58:50;;;;;;;2.17;1.45;;;;;;;;;;4969181;28;20047;-66
2022/09/25 14:01:33;;;;;;;6.57;2.60;;;;;;;;;;4975062;28;20047;-66
2022/09/25 14:04:06;;;;;;;2.70;1.63;;;;;;;;;;4975781;28;20058;-65
2022/09/25 14:06:34;;;;;;;2.33;1.50;;;;;;;;;;4975809;28;20042;-66
2022/09/25 14:09:06;;;;;;;2.55;1.25;;;;;;;;;;4975164;28;20458;-66
2022/09/25 14:11:36;;;;;;;2.05;1.50;;;;;;;;;;4975677;28;20047;-65
2022/09/25 14:14:12;;;;;;;1.35;0.80;;;;;;;;;;4975671;28;20059;-65
2022/09/25 14:16:48;;;;;;;2.08;1.00;;;;;;;;;;4975386;28;20067;-65
2022/09/25 14:19:19;;;;;;;2.42;1.30;;;;;;;;;;4975766;28;20050;-65
2022/09/25 14:21:47;;;;;;;3.95;1.20;;;;;;;;;;4975321;28;20051;-66
2022/09/25 14:24:40;;;;;;;2.15;1.08;;;;;;;;;;4975467;28;20050;-66
2022/09/25 14:27:14;;;;;;;1.05;0.63;;;;;;;;;;4973610;28;20047;-66
2022/09/25 14:29:41;;;;;;;3.35;0.80;;;;;;;;;;4975595;28;20046;-66
2022/09/25 14:32:26;;;;;;;2.47;0.70;;;;;;;;;;4975193;28;20490;-66
2022/09/25 14:35:13;;;;;;;2.05;0.77;;;;;;;;;;4975140;28;20054;-66
2022/09/25 14:37:55;;;;;;;1.48;0.52;;;;;;;;;;4974918;28;20054;-66
2022/09/25 14:40:32;;;;;;;2.55;0.80;;;;;;;;;;4975245;28;20163;-67
2022/09/25 14:42:59;;;;;;;;;;;;;;;;;;4975272;28;20558;-67
2022/09/25 14:45:36;;;;;;;1.00;0.50;;;;;;;;;;4974587;28;19922;-65
2022/09/25 14:48:05;;;;;;;3.30;0.50;;;;;;;;;;4974736;28;20047;-66
2022/09/25 14:50:34;;;;;;;2.67;0.60;;;;;;;;;;4971363;28;20479;-66
2022/09/25 14:53:03;;;;;;;2.67;0.60;;;;;;;;;;4974437;28;20495;-66
2022/09/25 14:55:33;;;;;;;3.42;0.50;;;;;;;;;;4974561;28;20483;-66
2022/09/25 14:58:00;;;;;;;1.80;0.60;;;;;;;;;;4974261;28;20043;-66
2022/09/25 15:00:27;;;;;;;;;;;;;;;;;;4974662;28;20050;-66
2022/09/25 15:02:55;;;;;;;1.83;0.82;;;;;;;;;;4974594;28;19930;-66
2022/09/25 15:05:22;;;;;;;2.50;0.88;;;;;;;;;;4974549;28;20093;-66
2022/09/25 15:07:49;;;;;;;2.67;0.80;;;;;;;;;;4974462;28;20053;-66
2022/09/25 15:10:35;;;;;;;3.15;0.75;;;;;;;;;;4973974;28;20047;-66
2022/09/25 15:13:05;;;;;;;0.75;0.73;;;;;;;;;;4971993;28;20047;-66
2022/09/25 15:15:32;;;;;;;1.60;0.60;;;;;;;;;;4972938;28;20047;-66
2022/09/25 15:18:01;;;;;;;4.53;0.60;;;;;;;;;;4973976;28;20051;-66
2022/09/25 15:20:29;;;;;;;1.75;0.75;;;;;;;;;;4974332;28;20105;-65
2022/09/25 15:22:56;;;;;;;1.38;0.80;;;;;;;;;;4974136;28;20084;-65
2022/09/25 15:25:25;;;;;;;2.20;0.80;;;;;;;;;;4974291;28;20050;-65